Time;durP1;ratioP1;P1;durP2;ratioP2;P2;SDS_P1;SDS_P2;PMS_P1;PMS_P2;Temp;Humidity;BMP_temperature;BMP_pressure;BME280_temperature;BME280_humidity;BME280_pressure;Samples;Min_cycle;Max_cycle;Signal;HPM_P1;HPM_P2
2022/03/29 00:00:17;;;;;;;14.90;8.47;;;;;;;1.06;61.31;95694.95;1777380;80;21017;-70
2022/03/29 00:02:46;;;;;;;11.63;7.03;;;;;;;1.01;60.07;95684.45;1777810;81;21480;-70
2022/03/29 00:05:12;;;;;;;15.73;8.07;;;;;;;0.89;62.17;95689.84;1778011;80;21006;-70
2022/03/29 00:07:39;;;;;;;9.97;6.07;;;;;;;0.87;61.26;95685.90;1777342;81;21013;-70
2022/03/29 00:10:08;;;;;;;14.37;8.13;;;;;;;0.91;61.10;95681.63;1777729;80;20990;-71
2022/03/29 00:12:36;;;;;;;29.50;9.27;;;;;;;0.96;60.44;95674.40;1777738;81;21010;-70
2022/03/29 00:15:06;;;;;;;15.93;8.03;;;;;;;1.04;60.03;95674.12;1777793;80;21025;-70
2022/03/29 00:17:33;;;;;;;12.20;6.30;;;;;;;1.07;61.54;95670.70;1777796;80;21483;-70
2022/03/29 00:20:00;;;;;;;14.63;7.07;;;;;;;1.00;60.42;95662.33;1777938;81;21021;-70
2022/03/29 00:22:26;;;;;;;14.63;7.73;;;;;;;0.96;60.97;95664.41;1777847;80;21051;-70
2022/03/29 00:24:53;;;;;;;11.60;7.30;;;;;;;0.86;61.74;95661.65;1777329;78;21077;-70
2022/03/29 00:27:20;;;;;;;12.93;7.40;;;;;;;0.89;60.95;95655.64;1777775;80;21476;-70
2022/03/29 00:29:46;;;;;;;10.17;5.77;;;;;;;0.84;60.82;95657.27;1777611;81;21046;-70
2022/03/29 00:32:13;;;;;;;12.23;7.40;;;;;;;0.84;60.90;95649.05;1777537;81;21108;-70
2022/03/29 00:34:42;;;;;;;11.67;7.27;;;;;;;0.80;61.31;95654.14;1777453;81;21077;-70
2022/03/29 00:37:09;;;;;;;12.77;6.87;;;;;;;0.85;61.16;95648.62;1777668;81;21487;-70
2022/03/29 00:39:36;;;;;;;10.80;6.30;;;;;;;0.89;60.75;95646.55;1777572;81;21061;-70
2022/03/29 00:42:03;;;;;;;9.83;6.13;;;;;;;0.76;62.15;95646.73;1777783;81;21044;-70
2022/03/29 00:44:33;;;;;;;10.27;5.87;;;;;;;0.59;61.85;95642.48;1777740;80;21533;-70
2022/03/29 00:47:01;;;;;;;11.43;6.37;;;;;;;0.60;61.65;95645.52;1777773;81;21029;-70
2022/03/29 00:49:28;;;;;;;12.57;7.63;;;;;;;0.64;61.31;95639.56;1777538;81;20982;-70
2022/03/29 00:51:58;;;;;;;12.17;6.83;;;;;;;0.70;61.26;95641.83;1777660;81;21479;-70
2022/03/29 00:54:26;;;;;;;13.10;7.40;;;;;;;0.73;61.17;95647.08;1777722;80;20990;-70
2022/03/29 00:56:53;;;;;;;14.37;7.17;;;;;;;0.74;60.91;95633.27;1777392;81;21049;-70
2022/03/29 00:59:20;;;;;;;13.93;8.00;;;;;;;0.74;61.54;95630.66;1778026;81;20982;-70
2022/03/29 01:01:48;;;;;;;13.57;7.20;;;;;;;0.74;62.34;95627.64;1777756;81;21468;-70
2022/03/29 01:04:14;;;;;;;13.00;7.17;;;;;;;0.81;61.68;95623.45;1777569;81;20974;-70
2022/03/29 01:06:43;;;;;;;11.97;6.67;;;;;;;0.85;60.94;95620.05;1777856;81;21001;-70
2022/03/29 01:09:11;;;;;;;12.20;7.20;;;;;;;0.89;60.60;95611.48;1777672;81;21037;-70
2022/03/29 01:11:39;;;;;;;11.43;7.53;;;;;;;0.89;61.74;95622.30;1751637;81;21053;-70
2022/03/29 01:14:06;;;;;;;14.60;7.83;;;;;;;0.77;62.60;95617.30;1777769;80;21531;-70
2022/03/29 01:19:22;;;;;;;16.07;7.93;;;;;;;0.75;62.88;95616.82;1777400;81;21045;-70
2022/03/29 01:22:00;;;;;;;14.23;7.57;;;;;;;0.82;62.87;95614.80;1777726;81;20990;-70
2022/03/29 01:24:28;;;;;;;14.23;6.27;;;;;;;0.76;61.94;95610.37;1780036;80;21064;-70
2022/03/29 01:27:01;;;;;;;10.70;6.33;;;;;;;0.79;62.25;95606.95;1787524;80;21057;-70
2022/03/29 01:29:32;;;;;;;;;;;;;;;0.70;63.10;95606.34;1789750;80;21010;-70
2022/03/29 01:32:05;;;;;;;9.80;4.83;;;;;;;0.51;62.69;95607.71;1787195;80;20409;-70
2022/03/29 01:34:35;;;;;;;12.82;6.92;;;;;;;0.53;63.18;95598.24;1787951;80;21044;-70
2022/03/29 01:37:04;;;;;;;12.30;7.00;;;;;;;0.45;62.88;95595.89;1787694;80;21013;-70
2022/03/29 01:39:33;;;;;;;10.47;6.13;;;;;;;0.48;63.25;95592.48;1756754;80;21089;-70
2022/03/29 01:42:00;;;;;;;19.20;6.30;;;;;;;0.49;62.83;95582.14;1787686;80;21001;-70
2022/03/29 01:44:28;;;;;;;10.87;6.30;;;;;;;0.55;62.26;95580.95;1787332;80;21006;-70
2022/03/29 01:46:55;;;;;;;17.97;7.40;;;;;;;0.64;62.07;95582.44;1787548;80;21459;-70
2022/03/29 01:49:22;;;;;;;13.27;6.20;;;;;;;0.71;61.74;95574.34;1787669;80;21010;-70
2022/03/29 01:51:49;;;;;;;15.67;7.10;;;;;;;0.80;61.37;95576.23;1787616;80;20974;-70
2022/03/29 01:54:16;;;;;;;11.93;6.30;;;;;;;0.78;61.22;95577.52;1787285;80;20993;-70
2022/03/29 01:56:43;;;;;;;9.73;6.20;;;;;;;0.75;61.86;95571.38;1787805;80;20985;-70
2022/03/29 01:59:15;;;;;;;9.00;5.90;;;;;;;0.74;61.93;95564.02;1787405;80;21022;-70
2022/03/29 02:01:43;;;;;;;11.60;6.07;;;;;;;0.67;62.88;95555.65;1786157;80;20985;-70
2022/03/29 02:04:09;;;;;;;8.07;5.97;;;;;;;0.64;61.97;95551.70;1788224;80;21028;-70
2022/03/29 02:06:36;;;;;;;11.40;6.10;;;;;;;0.64;61.78;95549.11;1787404;80;21492;-70
2022/03/29 02:09:08;;;;;;;8.17;5.73;;;;;;;0.66;61.74;95555.64;1787314;80;21021;-70
2022/03/29 02:11:39;;;;;;;7.70;4.60;;;;;;;0.59;63.16;95559.41;1787787;80;20969;-70
2022/03/29 02:14:05;;;;;;;8.87;5.70;;;;;;;0.58;61.82;95546.38;1787744;80;20978;-70
2022/03/29 02:16:33;;;;;;;10.20;6.33;;;;;;;0.59;61.74;95545.13;1787468;80;20973;-70
2022/03/29 02:19:00;;;;;;;9.20;5.30;;;;;;;0.59;62.22;95541.23;1787722;80;21057;-70
2022/03/29 02:21:27;;;;;;;12.50;6.77;;;;;;;0.56;62.26;95540.31;1787740;80;20969;-70
2022/03/29 02:23:53;;;;;;;8.83;5.13;;;;;;;0.60;62.03;95536.91;1787902;80;20997;-70
2022/03/29 02:26:20;;;;;;;14.77;6.50;;;;;;;0.59;61.83;95542.53;1795607;80;21052;-70
2022/03/29 02:28:47;;;;;;;15.23;6.50;;;;;;;0.63;63.12;95536.95;1795786;80;20981;-70
2022/03/29 02:31:13;;;;;;;12.57;5.80;;;;;;;0.67;61.96;95534.01;1796550;80;21005;-70
2022/03/29 02:33:40;;;;;;;8.40;5.27;;;;;;;0.67;61.45;95529.68;1796440;80;20989;-69
2022/03/29 02:36:08;;;;;;;9.33;5.17;;;;;;;0.69;61.32;95526.70;1796280;79;20949;-69
2022/03/29 02:38:35;;;;;;;16.77;7.87;;;;;;;0.63;61.51;95529.16;1796705;80;20982;-70
2022/03/29 02:41:01;;;;;;;15.33;7.43;;;;;;;0.56;62.26;95532.09;1796147;79;21005;-70
2022/03/29 02:43:28;;;;;;;8.73;4.70;;;;;;;0.45;62.33;95524.50;1796403;79;21479;-70
2022/03/29 02:45:54;;;;;;;6.20;4.30;;;;;;;0.33;62.15;95530.78;1796046;79;21008;-70
2022/03/29 02:48:21;;;;;;;13.50;5.03;;;;;;;0.29;62.66;95532.42;1795878;80;21302;-70
2022/03/29 02:50:47;;;;;;;9.80;5.07;;;;;;;0.28;63.01;95522.91;1796346;80;20985;-70
2022/03/29 02:53:15;;;;;;;13.03;5.00;;;;;;;0.34;63.50;95525.61;1796419;80;21009;-70
2022/03/29 02:55:43;;;;;;;8.30;4.67;;;;;;;0.40;62.82;95527.44;1796049;80;21557;-70
2022/03/29 02:58:11;;;;;;;9.27;4.90;;;;;;;0.39;63.32;95524.40;1796020;80;21065;-70
2022/03/29 03:00:38;;;;;;;10.37;5.60;;;;;;;0.42;64.73;95527.91;1796359;79;21008;-70
2022/03/29 03:03:06;;;;;;;9.13;5.60;;;;;;;0.41;63.90;95524.88;1796006;80;20986;-70
2022/03/29 03:05:33;;;;;;;10.60;6.70;;;;;;;0.43;63.46;95518.00;1796247;80;21041;-70
2022/03/29 03:08:00;;;;;;;11.53;6.40;;;;;;;0.49;62.94;95524.16;1796585;79;21064;-70
2022/03/29 03:10:26;;;;;;;21.33;13.07;;;;;;;0.50;63.11;95520.27;1796131;79;20989;-69
2022/03/29 03:12:53;;;;;;;32.57;15.03;;;;;;;0.53;62.92;95518.16;1796383;80;20981;-70
2022/03/29 03:15:23;;;;;;;15.30;8.50;;;;;;;0.51;62.28;95510.80;1796421;80;20973;-70
2022/03/29 03:17:52;;;;;;;19.97;11.23;;;;;;;0.51;63.58;95503.87;1795978;79;21056;-70
2022/03/29 03:20:21;;;;;;;22.67;12.70;;;;;;;0.53;62.86;95498.29;1796350;80;20988;-70
2022/03/29 03:22:49;;;;;;;25.33;14.07;;;;;;;0.55;62.79;95495.70;1796396;80;21009;-70
2022/03/29 03:25:15;;;;;;;25.53;14.73;;;;;;;0.59;63.37;95504.02;1792540;80;21024;-70
2022/03/29 03:27:42;;;;;;;19.67;11.73;;;;;;;0.57;63.41;95492.29;1787437;80;21080;-70
2022/03/29 03:30:13;;;;;;;47.13;20.17;;;;;;;0.41;64.24;95496.33;1787362;80;21013;-70
2022/03/29 03:32:41;;;;;;;32.37;18.60;;;;;;;0.37;63.27;95498.41;1787677;80;21010;-70
2022/03/29 03:35:09;;;;;;;35.77;18.80;;;;;;;0.36;63.76;95487.59;1787923;80;20989;-70
2022/03/29 03:37:37;;;;;;;35.13;19.97;;;;;;;0.30;64.22;95490.05;1787440;80;21048;-70
2022/03/29 03:40:07;;;;;;;40.27;20.63;;;;;;;0.37;63.76;95492.34;1787189;80;21006;-70
2022/03/29 03:42:35;;;;;;;43.73;22.73;;;;;;;0.42;63.82;95486.81;1787736;80;21480;-70
2022/03/29 03:45:03;;;;;;;44.83;22.97;;;;;;;0.46;63.69;95491.66;1787537;80;20981;-70
2022/03/29 03:47:31;;;;;;;45.47;22.40;;;;;;;0.49;64.39;95484.79;1787606;80;21013;-69
2022/03/29 03:49:57;;;;;;;39.47;19.27;;;;;;;0.53;63.57;95484.02;1787315;80;21014;-69
2022/03/29 03:52:24;;;;;;;40.03;22.03;;;;;;;0.54;64.28;95480.55;1787586;80;21471;-70
2022/03/29 03:54:51;;;;;;;58.53;27.50;;;;;;;0.31;64.65;95479.27;1787353;80;21547;-70
2022/03/29 03:57:19;;;;;;;40.63;23.23;;;;;;;0.26;64.27;95475.28;1787705;80;21044;-69
2022/03/29 03:59:48;;;;;;;63.53;26.97;;;;;;;0.29;64.34;95477.93;1787531;80;20997;-70
2022/03/29 04:02:15;;;;;;;112.70;44.03;;;;;;;0.26;64.84;95475.28;1787407;80;21017;-69
2022/03/29 04:04:41;;;;;;;62.07;29.93;;;;;;;0.16;65.32;95473.36;1787583;80;21022;-70
2022/03/29 04:07:08;;;;;;;48.10;26.57;;;;;;;0.20;64.44;95472.55;1787673;80;21497;-70
2022/03/29 04:09:35;;;;;;;49.80;27.27;;;;;;;0.29;64.47;95470.14;1787582;80;20998;-70
2022/03/29 04:12:07;;;;;;;49.93;27.67;;;;;;;0.33;65.70;95464.18;1787724;80;21109;-70
2022/03/29 04:14:34;;;;;;;51.87;29.10;;;;;;;0.31;65.11;95465.86;1787724;80;21494;-70
2022/03/29 04:17:01;;;;;;;58.80;29.00;;;;;;;0.33;64.61;95460.72;1787601;80;20989;-75
2022/03/29 04:19:27;;;;;;;58.27;29.50;;;;;;;0.35;64.60;95456.00;1787405;80;21501;-74
2022/03/29 04:21:54;;;;;;;77.00;41.57;;;;;;;0.27;64.59;95460.58;1787726;80;21045;-74
2022/03/29 04:24:21;;;;;;;78.63;40.93;;;;;;;0.23;65.10;95466.15;1787831;80;21033;-74
2022/03/29 04:26:48;;;;;;;79.63;40.33;;;;;;;0.16;65.90;95462.98;1788293;80;21010;-75
2022/03/29 04:29:15;;;;;;;55.67;29.80;;;;;;;0.10;66.48;95474.13;1787697;80;21005;-75
2022/03/29 04:31:41;;;;;;;55.27;28.70;;;;;;;0.17;66.50;95461.70;1787990;80;21009;-74
2022/03/29 04:34:08;;;;;;;54.60;28.07;;;;;;;0.18;65.74;95466.48;1787587;80;21021;-74
2022/03/29 04:36:35;;;;;;;56.80;30.87;;;;;;;0.26;66.36;95462.31;1787789;80;21467;-74
2022/03/29 04:39:02;;;;;;;40.17;23.00;;;;;;;0.31;66.60;95454.62;1787932;80;20985;-74
2022/03/29 04:41:29;;;;;;;86.90;45.60;;;;;;;0.32;65.90;95447.27;1787236;80;21040;-75
2022/03/29 04:43:59;;;;;;;82.10;46.27;;;;;;;0.32;66.91;95448.14;1787328;80;20989;-74
2022/03/29 04:46:27;;;;;;;81.53;41.63;;;;;;;0.34;66.91;95445.16;1787334;80;21029;-75
2022/03/29 04:48:54;;;;;;;189.73;82.43;;;;;;;0.38;67.03;95440.48;1787473;80;21029;-75
2022/03/29 04:51:20;;;;;;;43.67;22.57;;;;;;;0.47;66.54;95441.48;1787795;80;21037;-74
2022/03/29 04:53:47;;;;;;;85.73;46.70;;;;;;;0.57;65.90;95435.17;1787561;80;21010;-75
2022/03/29 04:56:13;;;;;;;75.23;38.80;;;;;;;0.63;66.56;95435.69;1787337;80;21452;-75
2022/03/29 04:58:40;;;;;;;74.30;39.03;;;;;;;0.68;66.76;95440.97;1787947;80;21045;-75
2022/03/29 05:01:06;;;;;;;35.60;20.20;;;;;;;0.75;67.08;95432.44;1786918;80;21063;-76
2022/03/29 05:03:33;;;;;;;33.13;17.93;;;;;;;0.91;66.46;95444.84;1785935;80;21002;-73
2022/03/29 05:06:00;;;;;;;31.70;16.57;;;;;;;1.01;66.11;95435.47;1786200;80;21056;-72
2022/03/29 05:08:27;;;;;;;51.33;27.70;;;;;;;1.12;65.70;95431.30;1786516;80;21010;-70
2022/03/29 05:10:53;;;;;;;34.80;18.33;;;;;;;1.14;66.49;95428.73;1785817;80;21644;-75
2022/03/29 05:13:20;;;;;;;34.90;20.53;;;;;;;1.19;65.90;95421.88;1786962;80;21005;-73
2022/03/29 05:15:47;;;;;;;41.30;23.07;;;;;;;1.31;66.69;95428.55;1787324;80;21002;-72
2022/03/29 05:18:14;;;;;;;49.57;28.20;;;;;;;1.38;66.13;95429.49;1787106;80;21053;-79
2022/03/29 05:20:40;;;;;;;54.97;28.67;;;;;;;1.50;65.87;95419.27;1786590;80;20966;-79
2022/03/29 05:23:08;;;;;;;46.20;24.83;;;;;;;1.65;65.58;95414.70;1786226;80;21569;-71
2022/03/29 05:25:38;;;;;;;38.70;22.70;;;;;;;1.78;65.25;95418.32;1786904;80;21029;-75
2022/03/29 05:28:06;;;;;;;58.73;33.77;;;;;;;1.93;65.13;95413.30;1785536;80;21104;-78
2022/03/29 05:30:33;;;;;;;44.47;26.03;;;;;;;2.07;64.41;95413.04;1785843;80;21630;-72
2022/03/29 05:33:00;;;;;;;64.80;35.37;;;;;;;2.20;63.93;95411.44;1787595;80;20954;-72
2022/03/29 05:35:33;;;;;;;57.10;31.20;;;;;;;2.29;62.96;95408.05;1787470;80;21006;-73
2022/03/29 05:38:03;;;;;;;62.93;35.43;;;;;;;2.44;62.93;95406.02;1787097;80;21045;-72
2022/03/29 05:40:30;;;;;;;67.97;35.83;;;;;;;2.56;61.92;95402.23;1786624;80;21041;-71
2022/03/29 05:42:57;;;;;;;56.00;29.27;;;;;;;2.64;64.79;95399.70;1786720;80;21096;-71
2022/03/29 05:45:24;;;;;;;58.67;33.50;;;;;;;2.74;64.93;95399.78;1786543;80;21001;-71
2022/03/29 05:50:36;;;;;;;52.40;25.67;;;;;;;3.04;64.27;95395.24;1787049;80;21001;-75
2022/03/29 05:53:03;;;;;;;49.60;27.60;;;;;;;3.17;64.45;95386.20;1787066;80;21040;-75
2022/03/29 05:55:30;;;;;;;50.47;28.43;;;;;;;3.28;64.70;95387.16;1786696;80;21060;-72
2022/03/29 05:57:57;;;;;;;45.70;26.47;;;;;;;3.47;63.82;95386.38;1786676;80;20958;-72
2022/03/29 06:00:25;;;;;;;43.80;27.00;;;;;;;3.65;62.89;95382.13;1786379;80;21116;-78
2022/03/29 06:02:57;;;;;;;43.50;24.47;;;;;;;3.83;62.08;95375.70;1786686;80;21041;-73
2022/03/29 06:05:21;;;;;;;39.53;24.57;;;;;;;4.01;61.64;95375.33;1785141;80;21069;-73
2022/03/29 06:07:48;;;;;;;38.20;24.63;;;;;;;4.18;61.35;95372.74;1786069;80;21581;-71
2022/03/29 06:10:15;;;;;;;48.73;25.83;;;;;;;4.32;61.09;95374.52;1786476;80;21269;-71
2022/03/29 06:12:46;;;;;;;49.57;24.80;;;;;;;4.46;60.48;95374.97;1786495;80;21095;-71
2022/03/29 06:15:15;;;;;;;38.80;22.13;;;;;;;4.59;59.64;95371.97;1787000;80;21087;-74
2022/03/29 06:17:41;;;;;;;41.20;23.23;;;;;;;4.70;58.38;95363.24;1787418;80;20954;-72
2022/03/29 06:20:10;;;;;;;37.67;22.43;;;;;;;4.85;57.80;95354.98;1787641;80;21515;-75
2022/03/29 06:22:42;;;;;;;41.73;23.23;;;;;;;5.02;56.96;95353.66;1787176;80;21491;-76
2022/03/29 06:25:10;;;;;;;33.30;22.45;;;;;;;5.18;57.03;95346.22;1786988;80;21112;-73
2022/03/29 06:27:37;;;;;;;38.90;22.63;;;;;;;5.35;57.01;95353.59;1778792;79;21519;-77
2022/03/29 06:30:06;;;;;;;37.17;22.33;;;;;;;5.52;56.42;95353.97;1775709;80;21090;-71
2022/03/29 06:32:32;;;;;;;36.73;22.70;;;;;;;5.69;55.81;95352.62;1777413;81;20970;-77
2022/03/29 06:34:59;;;;;;;44.13;24.73;;;;;;;5.89;55.95;95357.34;1777660;81;21009;-74
2022/03/29 06:37:25;;;;;;;39.50;22.67;;;;;;;6.07;56.04;95343.31;1777006;81;21597;-74
2022/03/29 06:39:52;;;;;;;41.50;23.10;;;;;;;6.29;56.58;95332.28;1776560;81;21029;-72
2022/03/29 06:42:19;;;;;;;29.20;15.63;;;;;;;6.54;56.28;95337.37;1776386;81;21068;-73
2022/03/29 06:44:46;;;;;;;35.77;22.33;;;;;;;6.85;56.54;95324.88;1777890;81;21460;-72
2022/03/29 06:47:16;;;;;;;40.23;23.20;;;;;;;7.55;57.11;95317.61;1777254;80;21018;-76
2022/03/29 06:49:43;;;;;;;45.53;28.87;;;;;;;7.91;56.47;95319.81;1777722;81;21013;-80
2022/03/29 06:52:10;;;;;;;12.87;5.83;;;;;;;8.26;56.73;95307.97;1776848;80;21060;-76
2022/03/29 06:54:37;;;;;;;11.93;6.20;;;;;;;9.14;52.21;95310.12;1777041;80;21041;-74
2022/03/29 06:57:05;;;;;;;9.77;4.77;;;;;;;9.86;48.89;95303.04;1777417;80;21101;-73
2022/03/29 06:59:32;;;;;;;9.27;6.00;;;;;;;10.25;49.03;95296.48;1777267;80;21018;-76
2022/03/29 07:01:59;;;;;;;13.27;6.07;;;;;;;10.74;47.24;95286.62;1776441;81;21061;-75
2022/03/29 07:04:25;;;;;;;11.23;6.50;;;;;;;11.17;45.00;95285.09;1776774;80;21350;-76
2022/03/29 07:06:52;;;;;;;11.00;5.43;;;;;;;11.61;43.82;95279.06;1777430;81;21041;-74
2022/03/29 07:12:05;;;;;;;9.70;6.20;;;;;;;12.34;43.57;95280.05;1777173;81;21114;-73
2022/03/29 07:14:32;;;;;;;9.67;5.80;;;;;;;12.75;40.42;95281.00;1776903;81;21029;-73
2022/03/29 07:16:59;;;;;;;12.07;8.20;;;;;;;12.92;40.24;95272.52;1777218;81;20988;-73
2022/03/29 07:19:27;;;;;;;10.73;5.90;;;;;;;13.07;41.22;95269.83;1777244;81;21029;-67
2022/03/29 07:21:54;;;;;;;7.50;5.40;;;;;;;13.30;40.02;95261.13;1776043;80;21073;-70
2022/03/29 07:24:21;;;;;;;10.43;5.53;;;;;;;13.45;39.72;95259.73;1777425;81;21002;-75
2022/03/29 07:26:48;;;;;;;7.00;5.00;;;;;;;13.58;37.62;95262.34;1780302;80;21009;-72
2022/03/29 07:29:15;;;;;;;8.63;6.50;;;;;;;13.71;39.50;95257.03;1786502;80;21056;-67
2022/03/29 07:31:42;;;;;;;11.70;5.77;;;;;;;13.85;38.71;95249.41;1787370;80;21515;-72
2022/03/29 07:34:09;;;;;;;8.20;5.37;;;;;;;13.97;39.02;95245.45;1787468;80;21013;-70
2022/03/29 07:36:35;;;;;;;8.63;5.17;;;;;;;14.07;37.66;95240.66;1787727;80;21029;-73
2022/03/29 07:39:02;;;;;;;9.03;6.13;;;;;;;14.17;37.20;95238.53;1786165;80;21518;-74
2022/03/29 07:41:29;;;;;;;10.20;5.37;;;;;;;14.29;36.73;95231.43;1787414;80;21430;-70
2022/03/29 07:43:55;;;;;;;11.63;5.83;;;;;;;14.41;35.85;95230.06;1786635;80;21072;-72
2022/03/29 07:46:22;;;;;;;12.33;6.63;;;;;;;14.50;36.99;95222.60;1787121;80;21021;-71
2022/03/29 07:48:49;;;;;;;10.75;5.45;;;;;;;14.64;36.95;95214.57;1786791;80;21335;-70
2022/03/29 07:51:17;;;;;;;6.75;5.45;;;;;;;14.80;36.20;95202.88;1786439;80;21028;-68
2022/03/29 07:53:47;;;;;;;11.30;5.50;;;;;;;14.98;35.85;95216.72;1786327;80;21546;-66
2022/03/29 07:56:14;;;;;;;11.20;6.00;;;;;;;15.10;35.75;95214.02;1787692;80;21064;-66
2022/03/29 07:58:41;;;;;;;9.15;5.47;;;;;;;15.17;34.76;95211.94;1787559;80;21061;-68
2022/03/29 08:01:08;;;;;;;11.20;5.40;;;;;;;15.31;34.79;95205.58;1786368;80;21092;-69
2022/03/29 08:03:34;;;;;;;10.60;5.47;;;;;;;15.39;34.26;95196.80;1786861;80;21406;-68
2022/03/29 08:06:02;;;;;;;12.18;6.33;;;;;;;15.55;35.24;95190.36;1786102;80;21541;-68
2022/03/29 08:08:31;;;;;;;7.20;5.80;;;;;;;15.77;35.60;95190.27;1787818;80;21065;-66
2022/03/29 08:10:58;;;;;;;10.85;6.85;;;;;;;15.86;33.82;95183.69;1786564;80;21096;-67
2022/03/29 08:13:25;;;;;;;9.93;5.85;;;;;;;15.95;34.46;95180.58;1787295;80;21010;-66
2022/03/29 08:15:53;;;;;;;9.33;6.28;;;;;;;16.08;33.62;95176.44;1787009;80;21546;-68
2022/03/29 08:18:20;;;;;;;10.78;5.50;;;;;;;16.29;35.08;95185.67;1787215;80;21049;-67
2022/03/29 08:20:48;;;;;;;11.08;6.62;;;;;;;16.38;33.56;95168.80;1785873;80;21061;-68
2022/03/29 08:23:14;;;;;;;10.80;6.22;;;;;;;16.53;34.55;95167.64;1787051;80;21002;-67
2022/03/29 08:25:43;;;;;;;12.03;6.78;;;;;;;16.59;33.46;95166.02;1787114;80;21092;-67
2022/03/29 08:28:11;;;;;;;11.05;6.20;;;;;;;16.68;32.79;95164.22;1778276;80;21089;-70
2022/03/29 08:30:38;;;;;;;8.20;5.70;;;;;;;16.83;33.69;95161.30;1776851;81;20990;-65
2022/03/29 08:33:06;;;;;;;13.28;6.03;;;;;;;16.99;32.38;95156.94;1776538;81;21070;-66
2022/03/29 08:35:34;;;;;;;7.95;5.30;;;;;;;17.11;33.05;95157.23;1777652;80;20978;-71
2022/03/29 08:38:02;;;;;;;14.75;7.70;;;;;;;17.16;31.42;95169.86;1776684;80;21571;-69
2022/03/29 08:40:28;;;;;;;10.65;6.03;;;;;;;17.18;32.52;95159.98;1776400;80;21093;-74
2022/03/29 08:42:58;;;;;;;9.30;6.50;;;;;;;17.39;32.59;95146.89;1776407;81;21006;-71
2022/03/29 08:45:29;;;;;;;8.73;6.35;;;;;;;17.46;31.52;95138.96;1777667;80;20966;-65
2022/03/29 08:47:59;;;;;;;7.03;5.87;;;;;;;17.57;31.56;95138.38;1777368;81;21506;-65
2022/03/29 08:50:31;;;;;;;21.48;12.37;;;;;;;17.60;30.20;95136.02;1777795;80;21040;-67
2022/03/29 08:52:58;;;;;;;11.05;6.42;;;;;;;17.73;31.33;95128.59;1777430;81;21038;-67
2022/03/29 08:55:25;;;;;;;10.08;6.33;;;;;;;17.93;30.97;95128.88;1777158;81;21045;-68
2022/03/29 08:57:54;;;;;;;24.50;15.47;;;;;;;17.90;30.49;95131.72;1776749;81;21022;-66
2022/03/29 09:00:21;;;;;;;11.40;6.30;;;;;;;18.06;31.44;95123.72;1775845;80;21057;-65
2022/03/29 09:02:48;;;;;;;9.68;6.33;;;;;;;18.12;30.24;95119.39;1777348;81;21020;-65
2022/03/29 09:05:19;;;;;;;10.13;6.45;;;;;;;18.16;29.13;95112.92;1776803;81;21597;-67
2022/03/29 09:07:56;;;;;;;8.08;6.25;;;;;;;18.14;28.87;95111.28;1776395;80;21057;-67
2022/03/29 09:10:49;;;;;;;8.63;6.28;;;;;;;18.26;28.70;95105.73;1777014;81;21025;-69
2022/03/29 09:13:24;;;;;;;9.68;6.05;;;;;;;18.38;29.05;95113.05;1776712;81;21033;-65
2022/03/29 09:15:55;;;;;;;13.58;6.42;;;;;;;18.50;30.21;95111.50;1776332;80;21017;-65
2022/03/29 09:18:22;;;;;;;12.40;8.08;;;;;;;18.50;27.93;95103.48;1777058;80;21507;-66
2022/03/29 09:21:15;;;;;;;8.95;5.47;;;;;;;18.55;29.19;95100.08;1777009;80;21134;-66
2022/03/29 09:23:41;;;;;;;9.98;6.12;;;;;;;18.63;27.93;95091.13;1776307;81;21010;-66
2022/03/29 09:26:26;;;;;;;8.93;5.72;;;;;;;18.70;27.84;95088.49;1777368;81;21018;-64
2022/03/29 09:28:53;;;;;;;8.48;5.62;;;;;;;18.86;27.84;95100.98;1786882;80;21057;-64
2022/03/29 09:31:22;;;;;;;10.00;6.37;;;;;;;18.77;27.17;95088.56;1787216;80;20989;-64
2022/03/29 09:33:50;;;;;;;15.18;6.53;;;;;;;18.92;27.89;95080.08;1787566;80;21459;-64
2022/03/29 09:36:20;;;;;;;9.90;6.12;;;;;;;19.12;27.52;95079.36;1787249;80;21005;-64
2022/03/29 09:38:47;;;;;;;10.15;5.70;;;;;;;19.26;26.39;95078.06;1786856;80;21115;-64
2022/03/29 09:41:31;;;;;;;8.83;5.55;;;;;;;19.42;25.94;95074.81;1787560;80;21013;-64
2022/03/29 09:44:09;;;;;;;9.78;5.80;;;;;;;19.45;25.93;95069.75;1787332;80;21005;-64
2022/03/29 09:46:59;;;;;;;8.88;5.78;;;;;;;19.58;25.73;95071.19;1787565;80;21507;-64
2022/03/29 09:49:26;;;;;;;8.30;5.45;;;;;;;19.58;25.73;95071.19;1787588;80;21009;-65
2022/03/29 09:52:15;;;;;;;8.83;5.58;;;;;;;19.73;24.76;95070.28;1787686;80;20997;-64
2022/03/29 09:54:55;;;;;;;8.78;5.20;;;;;;;19.57;25.16;95076.17;1787756;80;21033;-65
2022/03/29 09:57:27;;;;;;;12.00;6.10;;;;;;;19.49;26.42;95055.23;1775314;80;21021;-65
2022/03/29 09:59:55;;;;;;;10.32;6.10;;;;;;;19.49;26.42;95055.23;1784731;80;21005;-64
2022/03/29 10:02:22;;;;;;;9.98;5.78;;;;;;;19.62;24.56;95059.34;1787576;80;20978;-65
2022/03/29 10:04:49;;;;;;;12.60;8.53;;;;;;;19.62;24.56;95059.34;1757135;80;21013;-64
2022/03/29 10:07:16;;;;;;;9.08;6.55;;;;;;;19.69;25.38;95054.51;1787496;80;21001;-64
2022/03/29 10:09:44;;;;;;;38.65;24.32;;;;;;;19.69;23.74;95050.49;1787661;80;21519;-64
2022/03/29 10:12:12;;;;;;;7.92;5.90;;;;;;;19.64;24.03;95045.39;1787379;80;21032;-64
2022/03/29 10:14:42;;;;;;;14.90;9.20;;;;;;;19.74;24.03;95048.39;1787645;80;21006;-64
2022/03/29 10:17:09;;;;;;;21.77;18.67;;;;;;;19.86;24.61;95048.95;1787406;80;20985;-65
2022/03/29 10:19:38;;;;;;;9.35;6.30;;;;;;;19.93;23.56;95058.28;1787336;80;21020;-64
2022/03/29 10:22:06;;;;;;;9.78;5.97;;;;;;;19.82;23.85;95052.77;1787711;80;21001;-64
2022/03/29 10:24:33;;;;;;;8.23;5.72;;;;;;;19.79;23.44;95048.47;1787443;80;21048;-64
2022/03/29 10:27:01;;;;;;;9.35;5.90;;;;;;;20.11;23.24;95040.20;1787683;80;20997;-65
2022/03/29 10:29:30;;;;;;;9.43;5.72;;;;;;;20.11;23.24;95040.20;1787455;80;21061;-65
2022/03/29 10:32:05;;;;;;;8.33;5.55;;;;;;;20.13;24.11;95032.05;1787668;80;20982;-64
2022/03/29 10:34:37;;;;;;;9.53;6.92;;;;;;;20.39;23.67;95039.73;1787896;80;20966;-64
2022/03/29 10:37:17;;;;;;;11.88;6.72;;;;;;;20.19;22.65;95039.70;1757411;80;21028;-64
2022/03/29 10:40:04;;;;;;;7.87;5.60;;;;;;;19.98;22.67;95039.25;1787599;80;21549;-64
2022/03/29 10:42:37;;;;;;;16.48;5.95;;;;;;;19.88;23.50;95033.17;1787658;80;20953;-65
2022/03/29 10:45:27;;;;;;;7.83;6.12;;;;;;;19.84;22.50;95032.12;1787714;80;21019;-65
2022/03/29 10:48:11;;;;;;;8.28;5.85;;;;;;;19.80;21.98;95032.77;1787449;80;21128;-64
2022/03/29 10:50:58;;;;;;;13.80;5.92;;;;;;;19.86;22.03;95033.73;1787669;80;21491;-64
2022/03/29 10:53:33;;;;;;;8.18;5.70;;;;;;;20.16;23.60;95030.05;1787655;80;20993;-64
2022/03/29 10:56:17;;;;;;;8.73;6.25;;;;;;;20.51;22.31;95017.45;1787914;80;21001;-64
2022/03/29 10:59:08;;;;;;;7.70;5.83;;;;;;;20.81;24.10;95009.19;1787824;80;21005;-64
2022/03/29 11:01:37;;;;;;;8.93;5.28;;;;;;;20.99;20.88;95007.09;1787505;80;21518;-64
2022/03/29 11:04:20;;;;;;;10.00;6.78;;;;;;;21.15;21.64;95025.66;1787800;80;20942;-64
2022/03/29 11:07:14;;;;;;;;;;;;;;;20.97;20.81;95011.70;1790256;80;21507;-64
2022/03/29 11:09:39;;;;;;;9.58;5.78;;;;;;;20.77;21.55;95006.85;1678738;85;20149;-64
2022/03/29 11:12:07;;;;;;;6.33;5.20;;;;;;;21.03;20.98;95025.16;1758819;80;21010;-64
2022/03/29 11:14:41;;;;;;;9.10;5.78;;;;;;;21.09;19.97;95008.63;1787519;80;21017;-64
2022/03/29 11:17:22;;;;;;;8.90;6.10;;;;;;;21.23;20.20;95000.98;1786051;80;21085;-65
2022/03/29 11:19:54;;;;;;;9.73;5.78;;;;;;;21.69;20.97;94974.92;1787738;80;20978;-65
2022/03/29 11:22:36;;;;;;;8.83;5.75;;;;;;;22.08;19.00;94984.59;1787610;80;21543;-65
2022/03/29 11:25:09;;;;;;;7.85;5.53;;;;;;;22.13;18.25;94987.80;1787942;80;21009;-65
2022/03/29 11:27:37;;;;;;;7.40;5.20;;;;;;;22.31;18.33;94979.38;1789111;80;21037;-65
2022/03/29 11:30:11;;;;;;;9.35;5.65;;;;;;;22.67;17.99;94973.03;1796428;80;20997;-64
2022/03/29 11:32:46;;;;;;;10.68;5.47;;;;;;;22.60;17.91;94974.47;1795952;79;21554;-65
2022/03/29 11:35:19;;;;;;;6.62;5.28;;;;;;;22.94;17.95;94971.41;1796318;80;20997;-65
2022/03/29 11:37:49;;;;;;;7.60;5.22;;;;;;;23.33;17.51;94964.79;1796033;79;21013;-65
2022/03/29 11:40:17;;;;;;;9.95;6.10;;;;;;;23.89;17.64;94953.63;1796197;80;21009;-65
2022/03/29 11:42:54;;;;;;;7.75;5.53;;;;;;;24.27;17.64;94955.04;1795987;79;21048;-64
2022/03/29 11:45:24;;;;;;;9.38;5.30;;;;;;;24.36;16.41;94959.14;1796270;80;21005;-64